Rogers, AR

1:24 AM CST on February 07, 2016 (GMT -0600)
Prairie Creek | | Change Station
CLOSE
Current Station
Personal Weather Station
Location: Rogers, AR
Elevation: 1306 ft
Nearby Weather Stations

Elev 1306 ft 36.34 °N, 94.04 °W | Updated 24 seconds ago

Clear
Clear
40.5 °F
Feels Like 37 °F
N
5.6
Wind Variable Wind from South
Gusts 7.4 mph

Today
High -- | Low -- °F
--% Chance of Precip.
Yesterday
High -- | Low -- °F
Precip. -- in
Pressure 30.22 in
Visibility 10.0 miles
Clouds Clear
Windchill 37 °F
Dew Point 30 °F
Humidity 67%
Rainfall 0.00 in
Snow Depth Not available.
7:12 AM 5:48 PM
Waning Crescent, 2% visible
METAR KROG 070657Z AUTO 22006KT 10SM CLR 03/M02 A3021 RMK AO2 SLP233 T00281017
Pressure 30.22 in
Visibility 10.0 miles
Clouds Clear
Windchill 37 °F
Dew Point 30 °F
Humidity 67%
Rainfall 0.00 in
Snow Depth Not available.
7:12 AM 5:48 PM
Waning Crescent, 2% visible
METAR KROG 070657Z AUTO 22006KT 10SM CLR 03/M02 A3021 RMK AO2 SLP233 T00281017

10-Day Weather Forecast

Almanac

Astronomy

Feb. 07, 2016 Rise Set
Actual Time
Civil Twilight
Nautical Twilight
Astronomical Twilight
Moon
Length of Visible Light
Length of Day
Tomorrow will be .
, % of the Moon is Illuminated

Today's Extremes

State Highs State Lows

Community

WunderPhotos

Upload Photos

1,891,171 photos uploaded!

WunderBlog® & News

Nearby

Air Quality

  Air Quality AQ Index Pollutant
Not available.

Snow Depth

Station Depth Elevation

Earthquake Activity

City Distance Mag. Time & Date
Minimum magnitude displayed is 2.5.

Coastal Water Temperatures

Place Temperature

Stations

Nearby Weather Stations

Station Location Temp. Windchill Dew Point Humidity Wind Precip. Elev Updated Type
                   

Watches & Warnings

There are currently no watches in effect.